sensor_id;sensor_type;location;lat;lon;timestamp;pressure;altitude;pressure_sealevel;temperature;humidity
44349;BME280;30068;50.986;4.564;2023-01-09T00:00:57;99515.22;;;17.93;57.63
44349;BME280;30068;50.986;4.564;2023-01-09T00:03:23;99509.19;;;17.91;57.58
44349;BME280;30068;50.986;4.564;2023-01-09T00:05:48;99509.41;;;17.96;57.36
44349;BME280;30068;50.986;4.564;2023-01-09T00:08:13;99515.63;;;17.90;57.62
44349;BME280;30068;50.986;4.564;2023-01-09T00:10:39;99512.09;;;17.96;57.23
44349;BME280;30068;50.986;4.564;2023-01-09T00:13:04;99510.66;;;17.87;57.79
44349;BME280;30068;50.986;4.564;2023-01-09T00:15:30;99518.13;;;17.91;57.48
44349;BME280;30068;50.986;4.564;2023-01-09T00:17:55;99507.53;;;17.83;57.65
44349;BME280;30068;50.986;4.564;2023-01-09T00:20:20;99520.59;;;17.80;57.71
44349;BME280;30068;50.986;4.564;2023-01-09T00:22:46;99520.63;;;17.86;57.54
44349;BME280;30068;50.986;4.564;2023-01-09T00:25:14;99524.34;;;17.85;57.95
44349;BME280;30068;50.986;4.564;2023-01-09T00:27:39;99520.19;;;17.83;57.67
44349;BME280;30068;50.986;4.564;2023-01-09T00:30:05;99513.75;;;17.84;57.97
44349;BME280;30068;50.986;4.564;2023-01-09T00:32:31;99527.44;;;17.82;57.98
44349;BME280;30068;50.986;4.564;2023-01-09T00:34:56;99522.69;;;17.84;57.87
44349;BME280;30068;50.986;4.564;2023-01-09T00:37:22;99523.06;;;17.81;57.72
44349;BME280;30068;50.986;4.564;2023-01-09T00:39:47;99528.06;;;17.77;57.73
44349;BME280;30068;50.986;4.564;2023-01-09T00:42:16;99523.31;;;17.80;57.65
44349;BME280;30068;50.986;4.564;2023-01-09T00:44:58;99527.06;;;17.92;57.48
44349;BME280;30068;50.986;4.564;2023-01-09T00:47:39;99527.69;;;17.81;57.62
44349;BME280;30068;50.986;4.564;2023-01-09T00:50:13;99543.88;;;17.81;57.59
44349;BME280;30068;50.986;4.564;2023-01-09T00:52:40;99537.19;;;17.76;57.92
44349;BME280;30068;50.986;4.564;2023-01-09T00:55:06;99540.09;;;17.82;57.74
44349;BME280;30068;50.986;4.564;2023-01-09T00:57:32;99536.56;;;17.74;57.46
44349;BME280;30068;50.986;4.564;2023-01-09T00:59:58;99537.63;;;17.73;57.41
44349;BME280;30068;50.986;4.564;2023-01-09T01:02:24;99530.38;;;17.81;57.23
44349;BME280;30068;50.986;4.564;2023-01-09T01:04:49;99540.72;;;17.70;57.60
44349;BME280;30068;50.986;4.564;2023-01-09T01:07:33;99539.69;;;17.71;57.57
44349;BME280;30068;50.986;4.564;2023-01-09T01:10:14;99542.56;;;17.70;57.74
44349;BME280;30068;50.986;4.564;2023-01-09T01:12:41;99539.25;;;17.74;57.69
44349;BME280;30068;50.986;4.564;2023-01-09T01:15:08;99545.69;;;17.67;57.57
44349;BME280;30068;50.986;4.564;2023-01-09T01:17:35;99547.13;;;17.69;57.82
44349;BME280;30068;50.986;4.564;2023-01-09T01:20:03;99540.91;;;17.62;57.71
44349;BME280;30068;50.986;4.564;2023-01-09T01:22:28;99544.44;;;17.63;57.58
44349;BME280;30068;50.986;4.564;2023-01-09T01:24:54;99537.75;;;17.59;57.53
44349;BME280;30068;50.986;4.564;2023-01-09T01:27:19;99538.84;;;17.64;57.58
44349;BME280;30068;50.986;4.564;2023-01-09T01:29:44;99543.19;;;17.65;57.28
44349;BME280;30068;50.986;4.564;2023-01-09T01:32:10;99538.84;;;17.64;57.32
44349;BME280;30068;50.986;4.564;2023-01-09T01:34:36;99542.56;;;17.63;57.31
44349;BME280;30068;50.986;4.564;2023-01-09T01:37:01;99545.06;;;17.65;57.45
44349;BME280;30068;50.986;4.564;2023-01-09T01:39:26;99551.44;;;17.57;57.37
44349;BME280;30068;50.986;4.564;2023-01-09T01:41:52;99550.41;;;17.58;57.69
44349;BME280;30068;50.986;4.564;2023-01-09T01:47:22;99548.34;;;17.60;57.35
44349;BME280;30068;50.986;4.564;2023-01-09T01:49:48;99543.34;;;17.57;57.40
44349;BME280;30068;50.986;4.564;2023-01-09T01:52:14;99546.22;;;17.49;57.92
44349;BME280;30068;50.986;4.564;2023-01-09T01:54:42;99546.66;;;17.53;57.55
44349;BME280;30068;50.986;4.564;2023-01-09T01:57:08;99544.16;;;17.51;57.25
44349;BME280;30068;50.986;4.564;2023-01-09T01:59:39;99552.88;;;17.53;57.41
44349;BME280;30068;50.986;4.564;2023-01-09T02:02:05;99553.28;;;17.50;57.50
44349;BME280;30068;50.986;4.564;2023-01-09T02:04:33;99545.41;;;17.55;57.10
44349;BME280;30068;50.986;4.564;2023-01-09T02:07:02;99542.09;;;17.47;57.41
44349;BME280;30068;50.986;4.564;2023-01-09T02:09:28;99544.56;;;17.48;57.58
44349;BME280;30068;50.986;4.564;2023-01-09T02:11:55;99542.88;;;17.47;57.52
44349;BME280;30068;50.986;4.564;2023-01-09T02:14:24;99547.50;;;17.53;57.44
44349;BME280;30068;50.986;4.564;2023-01-09T02:17:23;99549.94;;;17.48;57.51
44349;BME280;30068;50.986;4.564;2023-01-09T02:22:36;99553.28;;;17.50;57.55
44349;BME280;30068;50.986;4.564;2023-01-09T02:28:48;99557.84;;;17.50;57.34
44349;BME280;30068;50.986;4.564;2023-01-09T02:31:31;99559.03;;;17.41;57.66
44349;BME280;30068;50.986;4.564;2023-01-09T02:34:13;99560.50;;;17.43;57.44
44349;BME280;30068;50.986;4.564;2023-01-09T02:41:56;99561.53;;;17.42;57.50
44349;BME280;30068;50.986;4.564;2023-01-09T02:44:26;99557.19;;;17.41;57.56
44349;BME280;30068;50.986;4.564;2023-01-09T02:49:50;99555.31;;;17.42;57.62
44349;BME280;30068;50.986;4.564;2023-01-09T02:58:18;99541.84;;;17.42;57.18
44349;BME280;30068;50.986;4.564;2023-01-09T03:01:18;99530.00;;;17.36;57.68
44349;BME280;30068;50.986;4.564;2023-01-09T03:04:05;99519.22;;;17.36;57.70
44349;BME280;30068;50.986;4.564;2023-01-09T03:06:58;99517.75;;;17.40;57.39
44349;BME280;30068;50.986;4.564;2023-01-09T03:09:27;99529.34;;;17.34;57.93
44349;BME280;30068;50.986;4.564;2023-01-09T03:12:02;99516.28;;;17.31;57.56
44349;BME280;30068;50.986;4.564;2023-01-09T03:14:31;99507.19;;;17.32;57.67
44349;BME280;30068;50.986;4.564;2023-01-09T03:17:02;99516.69;;;17.28;57.82
44349;BME280;30068;50.986;4.564;2023-01-09T03:19:29;99517.16;;;17.38;57.36
44349;BME280;30068;50.986;4.564;2023-01-09T03:21:56;99514.44;;;17.38;57.51
44349;BME280;30068;50.986;4.564;2023-01-09T03:24:22;99521.28;;;17.34;57.35
44349;BME280;30068;50.986;4.564;2023-01-09T03:26:47;99525.81;;;17.27;57.47
44349;BME280;30068;50.986;4.564;2023-01-09T03:29:13;99518.78;;;17.26;57.24
44349;BME280;30068;50.986;4.564;2023-01-09T03:31:38;99513.78;;;17.29;57.18
44349;BME280;30068;50.986;4.564;2023-01-09T03:34:04;99523.75;;;17.35;57.32
44349;BME280;30068;50.986;4.564;2023-01-09T03:36:29;99520.03;;;17.30;57.26
44349;BME280;30068;50.986;4.564;2023-01-09T03:38:54;99517.13;;;17.31;57.37
44349;BME280;30068;50.986;4.564;2023-01-09T03:41:20;99518.34;;;17.29;57.13
44349;BME280;30068;50.986;4.564;2023-01-09T03:43:45;99519.81;;;17.25;57.38
44349;BME280;30068;50.986;4.564;2023-01-09T03:46:13;99519.16;;;17.23;57.58
44349;BME280;30068;50.986;4.564;2023-01-09T03:48:38;99513.41;;;17.32;57.00
44349;BME280;30068;50.986;4.564;2023-01-09T03:51:04;99522.06;;;17.28;56.93
44349;BME280;30068;50.986;4.564;2023-01-09T03:53:29;99521.66;;;17.24;57.04
44349;BME280;30068;50.986;4.564;2023-01-09T03:55:56;99523.53;;;17.24;57.60
44349;BME280;30068;50.986;4.564;2023-01-09T03:58:22;99526.19;;;17.17;56.94
44349;BME280;30068;50.986;4.564;2023-01-09T04:00:48;99517.91;;;17.19;56.89
44349;BME280;30068;50.986;4.564;2023-01-09T04:03:16;99515.81;;;17.21;56.82
44349;BME280;30068;50.986;4.564;2023-01-09T04:05:43;99507.13;;;17.19;56.97
44349;BME280;30068;50.986;4.564;2023-01-09T04:08:09;99512.94;;;17.22;56.74
44349;BME280;30068;50.986;4.564;2023-01-09T04:10:35;99511.69;;;17.18;56.85
44349;BME280;30068;50.986;4.564;2023-01-09T04:13:00;99520.34;;;17.14;56.86
44349;BME280;30068;50.986;4.564;2023-01-09T04:15:26;99522.03;;;17.15;56.78
44349;BME280;30068;50.986;4.564;2023-01-09T04:17:51;99521.19;;;17.14;56.53
44349;BME280;30068;50.986;4.564;2023-01-09T04:20:16;99510.81;;;17.11;57.00
44349;BME280;30068;50.986;4.564;2023-01-09T04:22:42;99518.91;;;17.11;56.71
44349;BME280;30068;50.986;4.564;2023-01-09T04:25:08;99506.28;;;17.12;56.53
44349;BME280;30068;50.986;4.564;2023-01-09T04:27:33;99500.06;;;17.11;56.59
44349;BME280;30068;50.986;4.564;2023-01-09T04:29:59;99511.25;;;17.15;56.75
44349;BME280;30068;50.986;4.564;2023-01-09T04:32:24;99524.53;;;17.16;56.81
44349;BME280;30068;50.986;4.564;2023-01-09T04:34:52;99518.69;;;17.13;56.66
44349;BME280;30068;50.986;4.564;2023-01-09T04:37:17;99526.16;;;17.11;56.53
44349;BME280;30068;50.986;4.564;2023-01-09T04:39:42;99523.03;;;17.07;56.93
44349;BME280;30068;50.986;4.564;2023-01-09T04:42:08;99522.63;;;17.10;56.48
44349;BME280;30068;50.986;4.564;2023-01-09T04:44:33;99514.56;;;17.10;56.45
44349;BME280;30068;50.986;4.564;2023-01-09T04:46:59;99514.56;;;17.10;56.22
44349;BME280;30068;50.986;4.564;2023-01-09T04:49:24;99528.84;;;17.04;56.10
44349;BME280;30068;50.986;4.564;2023-01-09T04:51:50;99512.84;;;17.03;56.59
44349;BME280;30068;50.986;4.564;2023-01-09T04:54:15;99517.44;;;17.09;56.14
44349;BME280;30068;50.986;4.564;2023-01-09T04:56:41;99518.66;;;17.06;56.61
44349;BME280;30068;50.986;4.564;2023-01-09T04:59:06;99516.59;;;17.08;55.95
44349;BME280;30068;50.986;4.564;2023-01-09T05:01:33;99519.91;;;17.04;56.07
44349;BME280;30068;50.986;4.564;2023-01-09T05:03:58;99518.09;;;17.17;55.43
44349;BME280;30068;50.986;4.564;2023-01-09T05:06:23;99525.38;;;17.23;55.15
44349;BME280;30068;50.986;4.564;2023-01-09T05:08:49;99529.59;;;17.39;54.60
44349;BME280;30068;50.986;4.564;2023-01-09T05:11:14;99527.09;;;17.31;54.88
44349;BME280;30068;50.986;4.564;2023-01-09T05:13:40;99531.63;;;17.24;55.46
44349;BME280;30068;50.986;4.564;2023-01-09T05:16:06;99518.78;;;17.26;54.90
44349;BME280;30068;50.986;4.564;2023-01-09T05:18:31;99519.19;;;17.29;55.02
44349;BME280;30068;50.986;4.564;2023-01-09T05:20:57;99535.56;;;17.28;55.11
44349;BME280;30068;50.986;4.564;2023-01-09T05:23:22;99532.25;;;17.26;54.79
44349;BME280;30068;50.986;4.564;2023-01-09T05:25:47;99552.53;;;17.22;54.83
44349;BME280;30068;50.986;4.564;2023-01-09T05:28:13;99539.91;;;17.22;54.89
44349;BME280;30068;50.986;4.564;2023-01-09T05:30:38;99536.16;;;17.23;54.98
44349;BME280;30068;50.986;4.564;2023-01-09T05:33:03;99532.84;;;17.21;54.74
44349;BME280;30068;50.986;4.564;2023-01-09T05:35:28;99548.19;;;17.21;54.88
44349;BME280;30068;50.986;4.564;2023-01-09T05:37:54;99535.72;;;17.20;54.48
44349;BME280;30068;50.986;4.564;2023-01-09T05:40:20;99550.66;;;17.16;54.27
44349;BME280;30068;50.986;4.564;2023-01-09T05:42:45;99546.72;;;17.18;54.30
44349;BME280;30068;50.986;4.564;2023-01-09T05:45:11;99552.31;;;17.17;54.19
44349;BME280;30068;50.986;4.564;2023-01-09T05:47:36;99552.31;;;17.17;54.34
44349;BME280;30068;50.986;4.564;2023-01-09T05:50:02;99557.72;;;17.17;54.50
44349;BME280;30068;50.986;4.564;2023-01-09T05:52:28;99549.44;;;17.18;54.35
44349;BME280;30068;50.986;4.564;2023-01-09T05:54:53;99557.47;;;17.12;54.50
44349;BME280;30068;50.986;4.564;2023-01-09T05:57:19;99552.47;;;17.09;54.84
44349;BME280;30068;50.986;4.564;2023-01-09T05:59:44;99549.41;;;17.12;54.77
44349;BME280;30068;50.986;4.564;2023-01-09T06:02:09;99557.03;;;17.08;54.56
44349;BME280;30068;50.986;4.564;2023-01-09T06:04:35;99564.28;;;17.08;54.66
44349;BME280;30068;50.986;4.564;2023-01-09T06:07:00;99569.69;;;17.08;54.28
44349;BME280;30068;50.986;4.564;2023-01-09T06:09:25;99570.97;;;17.12;54.47
44349;BME280;30068;50.986;4.564;2023-01-09T06:11:51;99570.16;;;17.18;54.49
44349;BME280;30068;50.986;4.564;2023-01-09T06:14:18;99580.13;;;17.24;53.97
44349;BME280;30068;50.986;4.564;2023-01-09T06:16:44;99578.41;;;17.10;55.88
44349;BME280;30068;50.986;4.564;2023-01-09T06:19:09;99586.88;;;17.07;55.72
44349;BME280;30068;50.986;4.564;2023-01-09T06:21:34;99591.25;;;17.08;55.55
44349;BME280;30068;50.986;4.564;2023-01-09T06:24:00;99576.81;;;17.22;54.99
44349;BME280;30068;50.986;4.564;2023-01-09T06:26:25;99574.25;;;17.14;55.37
44349;BME280;30068;50.986;4.564;2023-01-09T06:28:51;99579.50;;;17.22;54.73
44349;BME280;30068;50.986;4.564;2023-01-09T06:31:19;99575.16;;;17.27;54.55
44349;BME280;30068;50.986;4.564;2023-01-09T06:33:45;99585.16;;;17.40;54.36
44349;BME280;30068;50.986;4.564;2023-01-09T06:36:10;99595.97;;;17.40;54.43
44349;BME280;30068;50.986;4.564;2023-01-09T06:38:35;99598.28;;;17.43;54.53
44349;BME280;30068;50.986;4.564;2023-01-09T06:41:01;99595.78;;;17.48;54.32
44349;BME280;30068;50.986;4.564;2023-01-09T06:43:26;99592.88;;;17.43;54.61
44349;BME280;30068;50.986;4.564;2023-01-09T06:45:51;99606.75;;;17.40;54.29
44349;BME280;30068;50.986;4.564;2023-01-09T06:48:17;99602.00;;;17.42;54.36
44349;BME280;30068;50.986;4.564;2023-01-09T06:50:42;99610.09;;;17.42;54.61
44349;BME280;30068;50.986;4.564;2023-01-09T06:53:08;99616.94;;;17.38;54.39
44349;BME280;30068;50.986;4.564;2023-01-09T06:55:35;99626.72;;;17.46;54.16
44349;BME280;30068;50.986;4.564;2023-01-09T06:58:00;99631.47;;;17.44;54.40
44349;BME280;30068;50.986;4.564;2023-01-09T07:00:25;99644.50;;;17.40;54.73
44349;BME280;30068;50.986;4.564;2023-01-09T07:02:51;99650.50;;;17.35;54.28
44349;BME280;30068;50.986;4.564;2023-01-09T07:05:16;99650.53;;;17.42;54.25
44349;BME280;30068;50.986;4.564;2023-01-09T07:07:41;99646.78;;;17.36;54.19
44349;BME280;30068;50.986;4.564;2023-01-09T07:10:08;99648.25;;;17.39;54.47
44349;BME280;30068;50.986;4.564;2023-01-09T07:12:34;99663.19;;;17.42;54.21
44349;BME280;30068;50.986;4.564;2023-01-09T07:14:59;99665.22;;;17.33;54.60
44349;BME280;30068;50.986;4.564;2023-01-09T07:17:25;99669.38;;;17.35;54.17
44349;BME280;30068;50.986;4.564;2023-01-09T07:19:50;99670.22;;;17.36;53.46
44349;BME280;30068;50.986;4.564;2023-01-09T07:22:16;99670.63;;;17.33;54.24
44349;BME280;30068;50.986;4.564;2023-01-09T07:24:41;99677.03;;;17.32;54.19
44349;BME280;30068;50.986;4.564;2023-01-09T07:27:08;99680.63;;;17.39;53.98
44349;BME280;30068;50.986;4.564;2023-01-09T07:29:34;99685.97;;;17.32;54.41
44349;BME280;30068;50.986;4.564;2023-01-09T07:31:59;99691.84;;;17.49;53.69
44349;BME280;30068;50.986;4.564;2023-01-09T07:34:24;99688.78;;;16.69;54.66
44349;BME280;30068;50.986;4.564;2023-01-09T07:36:50;99694.53;;;16.87;54.82
44349;BME280;30068;50.986;4.564;2023-01-09T07:39:15;99692.78;;;17.01;53.96
44349;BME280;30068;50.986;4.564;2023-01-09T07:41:41;99694.44;;;17.02;53.62
44349;BME280;30068;50.986;4.564;2023-01-09T07:44:07;99708.81;;;17.09;53.78
44349;BME280;30068;50.986;4.564;2023-01-09T07:46:32;99708.22;;;17.13;53.46
44349;BME280;30068;50.986;4.564;2023-01-09T07:48:58;99711.50;;;17.09;53.52
44349;BME280;30068;50.986;4.564;2023-01-09T07:51:23;99713.56;;;17.07;53.56
44349;BME280;30068;50.986;4.564;2023-01-09T07:53:48;99728.50;;;17.09;53.59
44349;BME280;30068;50.986;4.564;2023-01-09T07:56:14;99723.13;;;17.09;53.83
44349;BME280;30068;50.986;4.564;2023-01-09T07:58:39;99722.28;;;17.09;53.69
44349;BME280;30068;50.986;4.564;2023-01-09T08:01:05;99728.66;;;17.01;53.93
44349;BME280;30068;50.986;4.564;2023-01-09T08:03:30;99725.94;;;17.01;53.87
44349;BME280;30068;50.986;4.564;2023-01-09T08:05:57;99731.53;;;16.99;53.83
44349;BME280;30068;50.986;4.564;2023-01-09T08:08:23;99740.66;;;16.98;53.83
44349;BME280;30068;50.986;4.564;2023-01-09T08:10:48;99739.66;;;17.06;53.63
44349;BME280;30068;50.986;4.564;2023-01-09T08:13:14;99749.19;;;17.02;54.09
44349;BME280;30068;50.986;4.564;2023-01-09T08:15:39;99754.75;;;17.01;53.84
44349;BME280;30068;50.986;4.564;2023-01-09T08:18:04;99762.47;;;17.04;53.90
44349;BME280;30068;50.986;4.564;2023-01-09T08:20:30;99760.56;;;16.97;53.97
44349;BME280;30068;50.986;4.564;2023-01-09T08:22:55;99774.66;;;16.99;54.22
44349;BME280;30068;50.986;4.564;2023-01-09T08:25:21;99776.31;;;17.01;54.17
44349;BME280;30068;50.986;4.564;2023-01-09T08:27:46;99775.88;;;16.97;54.36
44349;BME280;30068;50.986;4.564;2023-01-09T08:30:11;99770.09;;;17.00;54.19
44349;BME280;30068;50.986;4.564;2023-01-09T08:32:37;99787.22;;;16.92;54.38
44349;BME280;30068;50.986;4.564;2023-01-09T08:35:04;99793.03;;;16.89;54.56
44349;BME280;30068;50.986;4.564;2023-01-09T08:37:29;99788.84;;;16.87;54.55
44349;BME280;30068;50.986;4.564;2023-01-09T08:39:54;99801.75;;;16.91;54.25
44349;BME280;30068;50.986;4.564;2023-01-09T08:42:21;99795.72;;;16.89;54.39
44349;BME280;30068;50.986;4.564;2023-01-09T08:45:04;99797.19;;;16.92;54.43
44349;BME280;30068;50.986;4.564;2023-01-09T08:47:49;99797.56;;;16.89;54.35
44349;BME280;30068;50.986;4.564;2023-01-09T08:50:14;99815.22;;;16.91;54.14
44349;BME280;30068;50.986;4.564;2023-01-09T08:52:39;99812.53;;;16.91;54.51
44349;BME280;30068;50.986;4.564;2023-01-09T08:55:05;99818.28;;;16.88;54.55
44349;BME280;30068;50.986;4.564;2023-01-09T08:57:30;99812.91;;;16.88;54.37
44349;BME280;30068;50.986;4.564;2023-01-09T08:59:56;99822.66;;;16.89;54.79
44349;BME280;30068;50.986;4.564;2023-01-09T09:02:22;99826.78;;;16.85;54.92
44349;BME280;30068;50.986;4.564;2023-01-09T09:04:48;99827.59;;;16.86;54.50
44349;BME280;30068;50.986;4.564;2023-01-09T09:07:17;99828.16;;;16.81;54.60
44349;BME280;30068;50.986;4.564;2023-01-09T09:09:51;99843.06;;;16.77;54.75
44349;BME280;30068;50.986;4.564;2023-01-09T09:12:16;99843.41;;;16.74;54.49
44349;BME280;30068;50.986;4.564;2023-01-09T09:14:41;99849.91;;;16.80;54.77
44349;BME280;30068;50.986;4.564;2023-01-09T09:17:25;99858.81;;;16.80;54.32
44349;BME280;30068;50.986;4.564;2023-01-09T09:19:52;99866.22;;;16.72;54.58
44349;BME280;30068;50.986;4.564;2023-01-09T09:22:18;99879.09;;;16.76;54.23
44349;BME280;30068;50.986;4.564;2023-01-09T09:24:43;99884.50;;;16.76;54.24
44349;BME280;30068;50.986;4.564;2023-01-09T09:27:08;99886.91;;;16.71;54.53
44349;BME280;30068;50.986;4.564;2023-01-09T09:29:34;99898.53;;;16.72;54.14
44349;BME280;30068;50.986;4.564;2023-01-09T09:31:59;99901.00;;;16.73;54.10
44349;BME280;30068;50.986;4.564;2023-01-09T09:34:24;99900.00;;;16.74;54.39
44349;BME280;30068;50.986;4.564;2023-01-09T09:36:49;99904.38;;;16.75;54.26
44349;BME280;30068;50.986;4.564;2023-01-09T09:39:15;99909.94;;;16.74;54.16
44349;BME280;30068;50.986;4.564;2023-01-09T09:41:59;99900.56;;;16.70;54.23
44349;BME280;30068;50.986;4.564;2023-01-09T09:45:09;99905.78;;;16.71;54.29
44349;BME280;30068;50.986;4.564;2023-01-09T09:50:33;99931.03;;;16.70;53.84
44349;BME280;30068;50.986;4.564;2023-01-09T09:53:10;99936.25;;;16.72;54.29
44349;BME280;30068;50.986;4.564;2023-01-09T09:55:40;99942.84;;;16.69;54.06
44349;BME280;30068;50.986;4.564;2023-01-09T09:58:15;99948.22;;;16.69;54.19
44349;BME280;30068;50.986;4.564;2023-01-09T10:00:42;99942.56;;;16.64;54.50
44349;BME280;30068;50.986;4.564;2023-01-09T10:03:19;99950.09;;;16.69;54.53
44349;BME280;30068;50.986;4.564;2023-01-09T10:05:49;99956.47;;;16.68;54.26
44349;BME280;30068;50.986;4.564;2023-01-09T10:08:33;99968.47;;;16.65;54.49
44349;BME280;30068;50.986;4.564;2023-01-09T10:11:01;99977.19;;;16.67;54.50
44349;BME280;30068;50.986;4.564;2023-01-09T10:13:26;99963.72;;;16.67;54.57
44349;BME280;30068;50.986;4.564;2023-01-09T10:26:52;99994.97;;;16.39;53.06
44349;BME280;30068;50.986;4.564;2023-01-09T10:32:02;100011.44;;;17.53;52.74
44349;BME280;30068;50.986;4.564;2023-01-09T10:37:32;100018.38;;;18.26;51.07
44349;BME280;30068;50.986;4.564;2023-01-09T10:40:25;100011.97;;;18.34;50.74
44349;BME280;30068;50.986;4.564;2023-01-09T10:43:03;100015.53;;;18.34;51.04
44349;BME280;30068;50.986;4.564;2023-01-09T10:48:04;100021.13;;;18.61;50.67
44349;BME280;30068;50.986;4.564;2023-01-09T10:50:33;100028.38;;;16.96;49.03
44349;BME280;30068;50.986;4.564;2023-01-09T10:53:08;100020.72;;;17.65;49.17
44349;BME280;30068;50.986;4.564;2023-01-09T10:55:42;100028.28;;;18.19;48.39
44349;BME280;30068;50.986;4.564;2023-01-09T10:58:17;100030.53;;;18.43;48.07
44349;BME280;30068;50.986;4.564;2023-01-09T11:00:43;100022.28;;;18.79;48.42
44349;BME280;30068;50.986;4.564;2023-01-09T11:03:19;100035.72;;;18.66;48.36
44349;BME280;30068;50.986;4.564;2023-01-09T11:05:53;100019.63;;;18.86;48.69
44349;BME280;30068;50.986;4.564;2023-01-09T11:08:33;100033.88;;;19.08;48.07
44349;BME280;30068;50.986;4.564;2023-01-09T11:11:01;100039.56;;;18.85;48.97
44349;BME280;30068;50.986;4.564;2023-01-09T11:13:29;100035.06;;;18.99;48.59
44349;BME280;30068;50.986;4.564;2023-01-09T11:18:26;100037.41;;;19.08;48.47
44349;BME280;30068;50.986;4.564;2023-01-09T11:20:51;100039.03;;;18.96;49.16
44349;BME280;30068;50.986;4.564;2023-01-09T11:25:52;100032.84;;;19.09;49.04
44349;BME280;30068;50.986;4.564;2023-01-09T11:28:18;100036.75;;;19.00;49.34
44349;BME280;30068;50.986;4.564;2023-01-09T11:31:00;100031.59;;;19.11;49.39
44349;BME280;30068;50.986;4.564;2023-01-09T11:33:29;100043.47;;;19.10;49.44
44349;BME280;30068;50.986;4.564;2023-01-09T11:36:06;100042.88;;;19.21;49.41
44349;BME280;30068;50.986;4.564;2023-01-09T11:41:15;100046.81;;;19.19;49.34
44349;BME280;30068;50.986;4.564;2023-01-09T11:43:44;100053.22;;;19.11;50.04
44349;BME280;30068;50.986;4.564;2023-01-09T11:46:32;100063.38;;;19.03;49.93
44349;BME280;30068;50.986;4.564;2023-01-09T11:48:59;100074.16;;;18.96;50.21
44349;BME280;30068;50.986;4.564;2023-01-09T11:51:28;100074.47;;;19.14;49.96
44349;BME280;30068;50.986;4.564;2023-01-09T11:56:40;100073.84;;;19.19;50.28
44349;BME280;30068;50.986;4.564;2023-01-09T11:59:11;100069.00;;;19.01;50.62
44349;BME280;30068;50.986;4.564;2023-01-09T12:09:44;100082.91;;;18.98;50.89
44349;BME280;30068;50.986;4.564;2023-01-09T12:12:34;100077.06;;;18.94;50.88
44349;BME280;30068;50.986;4.564;2023-01-09T12:17:55;100081.22;;;18.97;51.05
44349;BME280;30068;50.986;4.564;2023-01-09T12:20:49;100078.59;;;19.04;50.88
44349;BME280;30068;50.986;4.564;2023-01-09T12:26:23;100086.19;;;16.19;53.76
44349;BME280;30068;50.986;4.564;2023-01-09T12:35:01;100091.09;;;17.20;51.86
44349;BME280;30068;50.986;4.564;2023-01-09T12:45:58;100107.56;;;17.25;52.82
44349;BME280;30068;50.986;4.564;2023-01-09T12:54:15;100101.94;;;17.41;53.24
44349;BME280;30068;50.986;4.564;2023-01-09T12:56:48;100097.31;;;17.35;53.50
44349;BME280;30068;50.986;4.564;2023-01-09T12:59:52;100102.97;;;17.40;53.63
44349;BME280;30068;50.986;4.564;2023-01-09T13:02:47;100103.19;;;17.38;53.45
44349;BME280;30068;50.986;4.564;2023-01-09T13:05:21;100103.19;;;17.38;53.79
44349;BME280;30068;50.986;4.564;2023-01-09T13:08:02;100100.63;;;17.52;53.62
44349;BME280;30068;50.986;4.564;2023-01-09T13:13:01;100110.19;;;17.54;53.73
44349;BME280;30068;50.986;4.564;2023-01-09T13:15:41;100110.00;;;17.56;53.64
44349;BME280;30068;50.986;4.564;2023-01-09T13:18:26;100110.59;;;17.51;53.89
44349;BME280;30068;50.986;4.564;2023-01-09T13:20:54;100116.66;;;17.53;54.05
44349;BME280;30068;50.986;4.564;2023-01-09T13:26:18;100122.66;;;17.55;54.40
44349;BME280;30068;50.986;4.564;2023-01-09T13:28:52;100136.91;;;17.49;54.74
44349;BME280;30068;50.986;4.564;2023-01-09T13:33:54;100146.50;;;17.66;54.27
44349;BME280;30068;50.986;4.564;2023-01-09T13:36:30;100138.97;;;17.62;54.25
44349;BME280;30068;50.986;4.564;2023-01-09T13:38:58;100152.34;;;17.70;54.29
44349;BME280;30068;50.986;4.564;2023-01-09T13:41:24;100153.75;;;17.66;54.41
44349;BME280;30068;50.986;4.564;2023-01-09T13:46:52;100149.00;;;17.68;54.40
44349;BME280;30068;50.986;4.564;2023-01-09T13:49:31;100145.09;;;17.70;54.34
44349;BME280;30068;50.986;4.564;2023-01-09T13:59:47;100137.31;;;17.17;53.32
44349;BME280;30068;50.986;4.564;2023-01-09T14:05:01;100154.06;;;18.28;53.00
44349;BME280;30068;50.986;4.564;2023-01-09T14:07:29;100162.50;;;18.61;52.25
44349;BME280;30068;50.986;4.564;2023-01-09T14:10:00;100172.63;;;18.80;51.90
44349;BME280;30068;50.986;4.564;2023-01-09T14:12:28;100174.00;;;18.98;51.51
44349;BME280;30068;50.986;4.564;2023-01-09T14:14:57;100185.59;;;19.19;51.14
44349;BME280;30068;50.986;4.564;2023-01-09T14:19:56;100203.91;;;19.52;50.32
44349;BME280;30068;50.986;4.564;2023-01-09T14:22:24;100211.50;;;19.63;50.14
44349;BME280;30068;50.986;4.564;2023-01-09T14:24:51;100211.16;;;19.86;49.97
44349;BME280;30068;50.986;4.564;2023-01-09T14:28:17;100213.13;;;19.98;49.59
44349;BME280;30068;50.986;4.564;2023-01-09T14:31:01;100218.69;;;19.84;49.55
44349;BME280;30068;50.986;4.564;2023-01-09T14:33:28;100225.78;;;19.85;49.56
44349;BME280;30068;50.986;4.564;2023-01-09T14:36:16;100230.78;;;19.94;49.21
44349;BME280;30068;50.986;4.564;2023-01-09T14:38:51;100241.84;;;19.99;49.40
44349;BME280;30068;50.986;4.564;2023-01-09T14:41:22;100245.38;;;19.93;49.50
44349;BME280;30068;50.986;4.564;2023-01-09T14:44:28;100247.03;;;19.94;49.58
44349;BME280;30068;50.986;4.564;2023-01-09T14:46:56;100251.59;;;19.87;49.86
44349;BME280;30068;50.986;4.564;2023-01-09T14:52:27;100281.53;;;19.79;50.26
44349;BME280;30068;50.986;4.564;2023-01-09T14:54:57;100288.00;;;19.78;50.59
44349;BME280;30068;50.986;4.564;2023-01-09T15:00:04;100301.13;;;19.81;50.22
44349;BME280;30068;50.986;4.564;2023-01-09T15:02:32;100305.66;;;19.74;50.79
44349;BME280;30068;50.986;4.564;2023-01-09T15:05:03;100312.75;;;19.75;50.48
44349;BME280;30068;50.986;4.564;2023-01-09T15:07:35;100330.50;;;19.78;50.39